Clermont Harbor, Mississippi
Current Conditions -  °F | °C
As of 2:53 PM on Saturday 22 Nov 2014 (Local Time) from KASD Reporting Station
Clear Clear  
Wind Chill: 65°   Ceiling: Unl
Heat Index: 65°   Visibility: 10mi
Dew Point: 56°   Wind: 6mph
Humidity: 73%   Direction: 90°E
Pressure: 30.09"   Gusts: NA
Location:  30.2253°N, 89.4838°W
Report Text: KASD 222053Z AUTO 09005KT 10SM CLR 18/13 A3009 RMK AO2 SLP190 T01830133 55021
Loading
Personal Weather Stations






























Interactive Weather Map New forecast layout! Learn more

10-Day Weather Forecast

Advertisements
Track Severe Weather on mobile